createdAt,value
2023-02-14T00:00:22.893Z,1.80
2023-02-14T00:02:52.802Z,1.80
2023-02-14T00:05:22.623Z,1.70
2023-02-14T00:07:52.514Z,1.80
2023-02-14T00:10:23.886Z,1.80
2023-02-14T00:12:53.520Z,1.80
2023-02-14T00:15:25.684Z,1.70
2023-02-14T00:17:56.995Z,1.80
2023-02-14T00:20:27.527Z,1.70
2023-02-14T00:22:57.314Z,1.70
2023-02-14T00:25:27.224Z,1.60
2023-02-14T00:27:57.073Z,1.60
2023-02-14T00:30:28.222Z,1.60
2023-02-14T00:32:57.743Z,1.50
2023-02-14T00:35:27.576Z,1.50
2023-02-14T00:37:57.461Z,1.50
2023-02-14T00:40:28.862Z,1.50
2023-02-14T00:42:58.482Z,1.50
2023-02-14T00:45:29.518Z,1.40
2023-02-14T00:47:59.399Z,1.50
2023-02-14T00:50:29.188Z,1.60
2023-02-14T00:52:58.916Z,1.60
2023-02-14T00:55:28.556Z,1.50
2023-02-14T00:57:58.261Z,1.50
2023-02-14T01:00:29.546Z,1.50
2023-02-14T01:02:59.471Z,1.60
2023-02-14T01:05:29.302Z,1.50
2023-02-14T01:07:59.069Z,1.50
2023-02-14T01:10:30.281Z,1.40
2023-02-14T01:13:01.015Z,1.40
2023-02-14T01:15:32.684Z,1.40
2023-02-14T01:18:02.645Z,1.40
2023-02-14T01:20:32.388Z,1.40
2023-02-14T01:23:02.160Z,1.40
2023-02-14T01:25:31.912Z,1.40
2023-02-14T01:28:01.673Z,1.30
2023-02-14T01:30:32.902Z,1.30
2023-02-14T01:33:02.882Z,1.30
2023-02-14T01:35:32.892Z,1.30
2023-02-14T01:38:02.670Z,1.20
2023-02-14T01:40:32.495Z,1.10
2023-02-14T01:43:02.118Z,1.00
2023-02-14T01:45:33.071Z,0.90
2023-02-14T01:48:03.248Z,0.90
2023-02-14T01:50:35.739Z,0.90
2023-02-14T01:53:07.695Z,0.90
2023-02-14T01:55:45.316Z,0.80
2023-02-14T01:58:20.515Z,0.80
2023-02-14T02:00:58.223Z,0.90
2023-02-14T02:03:32.902Z,0.80
2023-02-14T02:06:10.029Z,0.80
2023-02-14T02:08:44.329Z,0.90
2023-02-14T02:11:14.447Z,0.90
2023-02-14T02:13:44.354Z,0.80
2023-02-14T02:16:40.178Z,0.80
2023-02-14T02:19:27.670Z,0.80
2023-02-14T02:22:28.669Z,0.90
2023-02-14T02:25:08.473Z,1.00
2023-02-14T02:28:13.170Z,0.90
2023-02-14T02:31:02.860Z,0.80
2023-02-14T02:34:14.618Z,0.90
2023-02-14T02:36:58.792Z,0.80
2023-02-14T02:39:41.754Z,0.90
2023-02-14T02:42:22.590Z,0.80
2023-02-14T02:44:59.668Z,0.70
2023-02-14T02:47:32.968Z,0.70
2023-02-14T02:50:39.156Z,0.70
2023-02-14T02:53:18.063Z,0.70
2023-02-14T02:56:11.262Z,0.60
2023-02-14T02:58:45.456Z,0.60
2023-02-14T03:01:18.783Z,0.60
2023-02-14T03:04:10.418Z,0.60
2023-02-14T03:06:40.425Z,0.50
2023-02-14T03:09:36.066Z,0.40
2023-02-14T03:12:15.145Z,0.40
2023-02-14T03:14:51.472Z,0.40
2023-02-14T03:17:29.452Z,0.50
2023-02-14T03:20:14.291Z,0.40
2023-02-14T03:22:53.874Z,0.50
2023-02-14T03:25:43.631Z,0.50
2023-02-14T03:28:18.211Z,0.50
2023-02-14T03:30:55.794Z,0.50
2023-02-14T03:33:28.794Z,0.50
2023-02-14T03:36:03.661Z,0.50
2023-02-14T03:38:39.479Z,0.50
2023-02-14T03:41:15.915Z,0.40
2023-02-14T03:43:49.730Z,0.40
2023-02-14T03:46:22.957Z,0.30
2023-02-14T03:48:55.915Z,0.30
2023-02-14T03:51:28.340Z,0.20
2023-02-14T03:53:59.997Z,0.30
2023-02-14T03:56:37.044Z,0.20
2023-02-14T03:59:14.428Z,0.20
2023-02-14T04:01:49.649Z,0.20
2023-02-14T04:04:22.643Z,0.20
2023-02-14T04:06:52.877Z,0.20
2023-02-14T04:09:22.504Z,0.20
2023-02-14T04:11:53.607Z,0.20
2023-02-14T04:14:25.184Z,0.20
2023-02-14T04:17:12.493Z,0.30
2023-02-14T04:19:42.237Z,0.20
2023-02-14T04:22:12.030Z,0.10
2023-02-14T04:24:41.726Z,0.10
2023-02-14T04:27:12.947Z,0.00
2023-02-14T04:29:44.726Z,-0.10
2023-02-14T04:32:16.090Z,0.00
2023-02-14T04:34:46.102Z,0.00
2023-02-14T04:37:17.568Z,0.00
2023-02-14T04:39:47.796Z,-0.10
2023-02-14T04:42:19.199Z,-0.10
2023-02-14T04:44:49.074Z,-0.10
2023-02-14T04:47:18.846Z,-0.10
2023-02-14T04:49:48.603Z,-0.10
2023-02-14T04:52:18.327Z,-0.10
2023-02-14T04:54:48.658Z,-0.10
2023-02-14T04:57:19.853Z,-0.10
2023-02-14T04:59:49.560Z,-0.10
2023-02-14T05:02:19.305Z,-0.10
2023-02-14T05:04:49.901Z,-0.10
2023-02-14T05:07:19.787Z,-0.30
2023-02-14T05:09:49.686Z,-0.40
2023-02-14T05:12:20.784Z,-0.50
2023-02-14T05:14:50.633Z,-0.50
2023-02-14T05:17:24.261Z,-0.40
2023-02-14T05:19:54.139Z,-0.50
2023-02-14T05:22:23.923Z,-0.50
2023-02-14T05:24:53.686Z,-0.50
2023-02-14T05:27:24.790Z,-0.50
2023-02-14T05:29:54.662Z,-0.40
2023-02-14T05:32:24.509Z,-0.50
2023-02-14T05:34:54.420Z,-0.40
2023-02-14T05:37:24.028Z,-0.40
2023-02-14T05:39:53.760Z,-0.30
2023-02-14T05:42:24.818Z,-0.30
2023-02-14T05:44:54.563Z,-0.40
2023-02-14T05:47:24.342Z,-0.30
2023-02-14T05:49:54.023Z,-0.30
2023-02-14T05:52:23.970Z,-0.30
2023-02-14T05:54:53.505Z,-0.30
2023-02-14T05:57:24.660Z,-0.20
2023-02-14T05:59:54.535Z,-0.10
2023-02-14T06:02:24.154Z,-0.10
2023-02-14T06:04:53.913Z,-0.10
2023-02-14T06:07:23.459Z,-0.20
2023-02-14T06:09:53.264Z,-0.10
2023-02-14T06:12:24.408Z,-0.10
2023-02-14T06:14:54.249Z,-0.10
2023-02-14T06:17:23.992Z,0.00
2023-02-14T06:19:53.817Z,-0.10
2023-02-14T06:22:23.596Z,-0.10
2023-02-14T06:24:53.457Z,0.00
2023-02-14T06:27:24.735Z,0.00
2023-02-14T06:29:54.531Z,0.00
2023-02-14T06:32:24.320Z,0.10
2023-02-14T06:34:54.094Z,0.10
2023-02-14T06:37:23.839Z,0.20
2023-02-14T06:39:53.629Z,0.20
2023-02-14T06:42:24.821Z,0.20
2023-02-14T06:44:54.675Z,0.30
2023-02-14T06:47:24.378Z,0.30
2023-02-14T06:49:54.144Z,0.30
2023-02-14T06:52:23.904Z,0.30
2023-02-14T06:54:53.790Z,0.30
2023-02-14T06:57:24.751Z,0.30
2023-02-14T06:59:54.512Z,0.40
2023-02-14T07:02:25.161Z,0.50
2023-02-14T07:04:55.329Z,0.50
2023-02-14T07:07:25.072Z,0.40
2023-02-14T07:09:54.799Z,0.40
2023-02-14T07:12:25.933Z,0.50
2023-02-14T07:14:55.651Z,0.50
2023-02-14T07:17:25.540Z,0.50
2023-02-14T07:19:55.295Z,0.60
2023-02-14T07:22:25.100Z,0.60
2023-02-14T07:24:54.942Z,0.60
2023-02-14T07:27:26.112Z,0.70
2023-02-14T07:29:56.072Z,0.70
2023-02-14T07:32:26.574Z,0.80
2023-02-14T07:34:56.185Z,0.90
2023-02-14T07:37:25.969Z,0.90
2023-02-14T07:39:55.726Z,1.00
2023-02-14T07:42:26.979Z,1.00
2023-02-14T07:44:56.559Z,1.00
2023-02-14T07:47:26.523Z,1.00
2023-02-14T07:49:56.287Z,1.00
2023-02-14T07:52:26.094Z,1.00
2023-02-14T07:54:55.943Z,1.10
2023-02-14T07:57:27.083Z,1.20
2023-02-14T07:59:56.879Z,1.30
2023-02-14T08:02:26.820Z,1.40
2023-02-14T08:04:56.873Z,1.40
2023-02-14T08:07:28.446Z,1.40
2023-02-14T08:09:58.282Z,1.30
2023-02-14T08:12:47.028Z,1.40
2023-02-14T08:15:34.406Z,1.40
2023-02-14T08:18:04.285Z,1.50
2023-02-14T08:20:34.160Z,1.50
2023-02-14T08:23:04.131Z,1.50
2023-02-14T08:25:34.219Z,1.50
2023-02-14T08:28:06.306Z,1.60
2023-02-14T08:30:36.996Z,1.60
2023-02-14T08:33:06.841Z,1.70
2023-02-14T08:35:37.029Z,1.60
2023-02-14T08:38:07.231Z,1.60
2023-02-14T08:40:37.556Z,1.70
2023-02-14T08:43:09.104Z,1.80
2023-02-14T08:45:39.016Z,1.90
2023-02-14T08:48:11.693Z,1.90
2023-02-14T08:50:41.771Z,1.90
2023-02-14T08:53:13.161Z,2.00
2023-02-14T08:55:43.031Z,2.10
2023-02-14T08:58:15.152Z,2.10
2023-02-14T09:00:45.219Z,2.20
2023-02-14T09:03:15.301Z,2.30
2023-02-14T09:05:45.492Z,2.50
2023-02-14T09:08:15.129Z,2.40
2023-02-14T09:10:45.088Z,2.30
2023-02-14T09:13:16.312Z,2.30
2023-02-14T09:15:46.928Z,2.40
2023-02-14T09:18:17.174Z,2.40
2023-02-14T09:20:46.796Z,2.50
2023-02-14T09:23:16.657Z,2.50
2023-02-14T09:25:46.308Z,2.70
2023-02-14T09:28:17.577Z,2.80
2023-02-14T09:30:47.456Z,3.00
2023-02-14T09:33:17.405Z,3.00
2023-02-14T09:36:05.019Z,3.30
2023-02-14T09:38:34.938Z,3.40
2023-02-14T09:41:09.391Z,3.30
2023-02-14T09:43:46.397Z,3.10
2023-02-14T09:46:19.540Z,3.20
2023-02-14T09:48:50.657Z,3.20
2023-02-14T09:51:23.353Z,3.30
2023-02-14T09:53:58.089Z,3.20
2023-02-14T09:56:45.999Z,3.40
2023-02-14T09:59:29.302Z,3.50
2023-02-14T10:02:13.096Z,3.80
2023-02-14T10:04:49.885Z,3.90
2023-02-14T10:07:25.931Z,4.00
2023-02-14T10:10:03.111Z,4.00
2023-02-14T10:12:36.190Z,4.30
2023-02-14T10:15:15.942Z,4.20
2023-02-14T10:17:49.167Z,4.30
2023-02-14T10:20:22.950Z,4.60
2023-02-14T10:22:57.584Z,4.60
2023-02-14T10:25:30.322Z,4.40
2023-02-14T10:28:03.003Z,4.50
2023-02-14T10:30:41.546Z,4.90
2023-02-14T10:33:17.370Z,5.40
2023-02-14T10:35:51.021Z,5.90
2023-02-14T10:38:36.037Z,6.10
2023-02-14T10:41:21.894Z,6.20
2023-02-14T10:44:02.563Z,6.30
2023-02-14T10:46:40.797Z,6.20
2023-02-14T10:49:21.880Z,5.90
2023-02-14T10:51:56.883Z,5.90
2023-02-14T10:54:29.403Z,6.00
2023-02-14T10:57:04.033Z,6.20
2023-02-14T10:59:40.477Z,6.20
2023-02-14T11:02:15.642Z,6.10
2023-02-14T11:04:47.416Z,6.00
2023-02-14T11:07:19.250Z,5.90
2023-02-14T11:09:49.730Z,5.80
2023-02-14T11:12:34.264Z,5.70
2023-02-14T11:15:24.641Z,6.00
2023-02-14T11:18:10.716Z,6.40
2023-02-14T11:20:40.726Z,6.80
2023-02-14T11:23:26.315Z,7.10
2023-02-14T11:26:00.179Z,7.10
2023-02-14T11:28:30.496Z,7.20
2023-02-14T11:31:00.677Z,7.00
2023-02-14T11:33:45.748Z,6.80
2023-02-14T11:36:17.538Z,6.60
2023-02-14T11:38:55.926Z,6.50
2023-02-14T11:41:26.161Z,6.60
2023-02-14T11:44:10.416Z,6.70
2023-02-14T11:46:52.257Z,6.30
2023-02-14T11:49:29.645Z,6.70
2023-02-14T11:52:01.134Z,6.80
2023-02-14T11:54:33.067Z,6.70
2023-02-14T11:57:06.029Z,6.90
2023-02-14T11:59:41.887Z,6.90
2023-02-14T12:02:27.948Z,7.00
2023-02-14T12:05:01.320Z,7.10
2023-02-14T12:07:34.630Z,7.10
2023-02-14T12:10:25.694Z,7.00
2023-02-14T12:12:56.771Z,6.90
2023-02-14T12:15:41.285Z,7.10
2023-02-14T12:18:45.014Z,7.00
2023-02-14T12:21:26.099Z,6.90
2023-02-14T12:24:04.613Z,7.10
2023-02-14T12:26:35.986Z,7.10
2023-02-14T12:29:14.178Z,7.10
2023-02-14T12:31:45.923Z,7.00
2023-02-14T12:34:16.982Z,7.20
2023-02-14T12:37:09.763Z,7.20
2023-02-14T12:39:49.334Z,7.30
2023-02-14T12:42:32.800Z,7.00
2023-02-14T12:45:09.520Z,7.00
2023-02-14T12:47:47.433Z,7.00
2023-02-14T12:50:28.200Z,7.20
2023-02-14T12:53:32.076Z,7.00
2023-02-14T12:56:07.530Z,6.90
2023-02-14T12:58:51.761Z,6.80
2023-02-14T13:01:39.236Z,6.60
2023-02-14T13:04:41.040Z,7.00
2023-02-14T13:07:18.723Z,7.10
2023-02-14T13:09:59.392Z,7.20
2023-02-14T13:12:36.576Z,7.30
2023-02-14T13:15:19.833Z,7.60
2023-02-14T13:17:55.573Z,7.80
2023-02-14T13:20:45.393Z,7.70
2023-02-14T13:23:20.134Z,7.70
2023-02-14T13:25:54.819Z,7.60
2023-02-14T13:28:25.519Z,7.60
2023-02-14T13:30:56.932Z,7.50
2023-02-14T13:33:34.761Z,7.50
2023-02-14T13:36:07.731Z,7.40
2023-02-14T13:38:39.512Z,7.40
2023-02-14T13:41:11.548Z,7.40
2023-02-14T13:43:52.416Z,7.30
2023-02-14T13:46:23.271Z,7.30
2023-02-14T13:49:01.891Z,7.30
2023-02-14T13:51:46.468Z,7.40
2023-02-14T13:54:31.341Z,7.40
2023-02-14T13:57:04.173Z,7.40
2023-02-14T13:59:36.309Z,7.40
2023-02-14T14:02:32.920Z,7.30
2023-02-14T14:05:21.515Z,7.30
2023-02-14T14:08:10.112Z,7.30
2023-02-14T14:10:55.189Z,7.30
2023-02-14T14:13:55.644Z,7.40
2023-02-14T14:16:34.921Z,7.40
2023-02-14T14:19:24.909Z,7.30
2023-02-14T14:22:04.669Z,7.30
2023-02-14T14:24:35.457Z,7.30
2023-02-14T14:27:15.020Z,7.50
2023-02-14T14:29:50.879Z,7.50
2023-02-14T14:32:26.394Z,7.40
2023-02-14T14:34:57.755Z,7.40
2023-02-14T14:37:29.849Z,7.40
2023-02-14T14:40:01.704Z,7.30
2023-02-14T14:42:36.731Z,7.30
2023-02-14T14:45:09.140Z,7.30
2023-02-14T14:47:42.904Z,7.40
2023-02-14T14:50:19.304Z,7.50
2023-02-14T14:52:53.330Z,7.50
2023-02-14T14:55:25.751Z,7.40
2023-02-14T14:57:58.350Z,7.50
2023-02-14T15:00:31.651Z,7.50
2023-02-14T15:03:06.091Z,7.30
2023-02-14T15:05:36.612Z,7.10
2023-02-14T15:08:20.962Z,7.10
2023-02-14T15:10:53.822Z,7.10
2023-02-14T15:13:48.159Z,6.90
2023-02-14T15:16:19.489Z,6.80
2023-02-14T15:18:50.565Z,6.70
2023-02-14T15:21:20.515Z,6.60
2023-02-14T15:23:51.049Z,6.50
2023-02-14T15:26:24.780Z,6.30
2023-02-14T15:29:00.828Z,6.10
2023-02-14T15:31:36.767Z,6.00
2023-02-14T15:34:07.834Z,5.80
2023-02-14T15:36:38.013Z,5.80
2023-02-14T15:39:10.490Z,5.70
2023-02-14T15:41:44.716Z,5.60
2023-02-14T15:44:23.526Z,5.50
2023-02-14T15:46:56.972Z,5.40
2023-02-14T15:49:32.398Z,5.40
2023-02-14T15:52:03.668Z,5.40
2023-02-14T15:54:37.762Z,5.30
2023-02-14T15:57:17.705Z,5.20
2023-02-14T15:59:49.224Z,5.00
2023-02-14T16:02:28.839Z,5.00
2023-02-14T16:05:04.904Z,5.00
2023-02-14T16:07:34.542Z,4.90
2023-02-14T16:10:22.594Z,4.80
2023-02-14T16:13:00.113Z,4.70
2023-02-14T16:15:33.158Z,4.50
2023-02-14T16:18:07.917Z,4.30
2023-02-14T16:20:43.265Z,4.20
2023-02-14T16:23:23.844Z,4.10
2023-02-14T16:25:54.129Z,4.10
2023-02-14T16:28:28.558Z,3.90
2023-02-14T16:31:02.869Z,3.90
2023-02-14T16:33:35.522Z,3.80
2023-02-14T16:36:09.588Z,3.80
2023-02-14T16:38:43.501Z,3.60
2023-02-14T16:41:24.688Z,3.50
2023-02-14T16:43:54.835Z,3.50
2023-02-14T16:46:29.485Z,3.40
2023-02-14T16:48:59.504Z,3.40
2023-02-14T16:51:32.236Z,3.40
2023-02-14T16:54:05.160Z,3.30
2023-02-14T16:56:40.248Z,3.20
2023-02-14T16:59:10.713Z,3.10
2023-02-14T17:01:42.074Z,3.00
2023-02-14T17:04:12.099Z,2.90
2023-02-14T17:06:46.984Z,2.80
2023-02-14T17:09:20.002Z,2.90
2023-02-14T17:11:53.439Z,2.90
2023-02-14T17:14:24.913Z,2.80
2023-02-14T17:16:56.215Z,2.80
2023-02-14T17:19:26.118Z,2.90
2023-02-14T17:21:57.580Z,2.70
2023-02-14T17:24:27.716Z,2.70
2023-02-14T17:26:57.245Z,2.60
2023-02-14T17:29:27.135Z,2.50
2023-02-14T17:31:58.586Z,2.40
2023-02-14T17:34:31.588Z,2.20
2023-02-14T17:37:01.168Z,2.00
2023-02-14T17:39:31.280Z,1.80
2023-02-14T17:42:00.805Z,1.80
2023-02-14T17:44:32.460Z,1.70
2023-02-14T17:47:04.028Z,1.70
2023-02-14T17:49:36.314Z,1.70
2023-02-14T17:52:06.173Z,1.60
2023-02-14T17:54:39.489Z,1.70
2023-02-14T17:57:09.461Z,1.70
2023-02-14T17:59:39.402Z,1.50
2023-02-14T18:02:10.607Z,1.60
2023-02-14T18:04:40.537Z,1.60
2023-02-14T18:07:10.395Z,1.50
2023-02-14T18:09:41.192Z,1.50
2023-02-14T18:12:14.792Z,1.40
2023-02-14T18:14:45.097Z,1.30
2023-02-14T18:17:16.520Z,1.30
2023-02-14T18:19:46.771Z,1.20
2023-02-14T18:22:16.725Z,1.20
2023-02-14T18:24:46.583Z,1.10
2023-02-14T18:27:16.817Z,1.00
2023-02-14T18:29:46.391Z,1.00
2023-02-14T18:32:17.745Z,0.90
2023-02-14T18:34:47.671Z,0.90
2023-02-14T18:37:18.293Z,0.90
2023-02-14T18:39:48.208Z,1.00
2023-02-14T18:42:18.081Z,1.00
2023-02-14T18:44:47.960Z,0.90
2023-02-14T18:47:19.161Z,0.90
2023-02-14T18:49:48.926Z,0.90
2023-02-14T18:52:18.782Z,0.70
2023-02-14T18:54:48.627Z,0.70
2023-02-14T18:57:18.498Z,0.50
2023-02-14T18:59:48.465Z,0.50
2023-02-14T19:02:19.826Z,0.50
2023-02-14T19:04:49.554Z,0.40
2023-02-14T19:07:19.502Z,0.40
2023-02-14T19:09:49.336Z,0.40
2023-02-14T19:12:19.220Z,0.40
2023-02-14T19:14:48.998Z,0.40
2023-02-14T19:17:20.896Z,0.40
2023-02-14T19:19:52.178Z,0.40
2023-02-14T19:22:22.636Z,0.40
2023-02-14T19:24:55.805Z,0.40
2023-02-14T19:27:25.648Z,0.30
2023-02-14T19:29:55.561Z,0.20
2023-02-14T19:32:27.396Z,0.00
2023-02-14T19:34:57.329Z,-0.10
2023-02-14T19:37:27.182Z,-0.10
2023-02-14T19:39:56.787Z,-0.10
2023-02-14T19:42:26.760Z,0.00
2023-02-14T19:44:56.647Z,0.10
2023-02-14T19:47:45.661Z,0.10
2023-02-14T19:50:17.545Z,0.10
2023-02-14T19:52:47.254Z,0.00
2023-02-14T19:55:22.547Z,0.00
2023-02-14T19:57:52.199Z,0.20
2023-02-14T20:00:22.051Z,0.30
2023-02-14T20:02:53.477Z,0.20
2023-02-14T20:05:23.473Z,0.20
2023-02-14T20:07:55.395Z,0.20
2023-02-14T20:10:26.678Z,0.20
2023-02-14T20:12:56.519Z,0.30
2023-02-14T20:15:29.016Z,0.40
2023-02-14T20:18:00.114Z,0.50
2023-02-14T20:20:49.761Z,0.50
2023-02-14T20:23:20.262Z,0.50
2023-02-14T20:25:50.204Z,0.30
2023-02-14T20:28:20.025Z,0.20
2023-02-14T20:30:49.874Z,0.30
2023-02-14T20:33:20.835Z,0.30
2023-02-14T20:35:50.797Z,0.30
2023-02-14T20:38:20.661Z,0.50
2023-02-14T20:40:50.476Z,0.70
2023-02-14T20:43:20.476Z,0.70
2023-02-14T20:45:50.020Z,0.60
2023-02-14T20:48:21.191Z,0.50
2023-02-14T20:50:51.051Z,0.40
2023-02-14T20:53:21.124Z,0.40
2023-02-14T20:55:52.890Z,0.40
2023-02-14T20:58:23.038Z,0.30
2023-02-14T21:00:54.041Z,0.30
2023-02-14T21:03:32.015Z,0.30
2023-02-14T21:06:01.633Z,0.30
2023-02-14T21:08:31.278Z,0.40
2023-02-14T21:11:01.471Z,0.40
2023-02-14T21:13:31.525Z,0.30
2023-02-14T21:16:05.778Z,0.30
2023-02-14T21:18:37.628Z,0.40
2023-02-14T21:21:09.404Z,0.50
2023-02-14T21:23:39.192Z,0.40
2023-02-14T21:26:09.227Z,0.30
2023-02-14T21:28:39.300Z,0.20
2023-02-14T21:31:11.236Z,0.30
2023-02-14T21:33:42.413Z,0.30
2023-02-14T21:36:14.588Z,0.30
2023-02-14T21:38:44.931Z,0.40
2023-02-14T21:41:17.120Z,0.50
2023-02-14T21:43:48.499Z,0.50
2023-02-14T21:46:19.953Z,0.70
2023-02-14T21:49:08.674Z,0.40
2023-02-14T21:51:38.582Z,0.30
2023-02-14T21:54:08.534Z,0.30
2023-02-14T21:56:39.882Z,0.20
2023-02-14T21:59:10.577Z,0.10
2023-02-14T22:01:42.711Z,0.30
2023-02-14T22:04:15.062Z,0.40
2023-02-14T22:06:44.958Z,0.50
2023-02-14T22:09:17.476Z,0.50
2023-02-14T22:11:48.364Z,0.60
2023-02-14T22:14:18.570Z,0.60
2023-02-14T22:16:48.341Z,0.70
2023-02-14T22:19:19.509Z,0.60
2023-02-14T22:21:49.739Z,0.70
2023-02-14T22:24:19.576Z,0.70
2023-02-14T22:26:49.405Z,0.80
2023-02-14T22:29:19.240Z,0.80
2023-02-14T22:31:49.214Z,0.90
2023-02-14T22:34:20.164Z,0.80
2023-02-14T22:36:49.977Z,0.80
2023-02-14T22:39:19.908Z,0.90
2023-02-14T22:41:49.441Z,0.90
2023-02-14T22:44:19.248Z,0.80
2023-02-14T22:46:49.185Z,0.80
2023-02-14T22:49:20.216Z,0.70
2023-02-14T22:51:49.965Z,0.70
2023-02-14T22:54:19.731Z,0.70
2023-02-14T22:56:51.023Z,0.70
2023-02-14T22:59:22.199Z,0.60
2023-02-14T23:01:53.110Z,0.60
2023-02-14T23:04:25.660Z,0.60
2023-02-14T23:06:56.213Z,0.50
2023-02-14T23:09:28.158Z,0.60
2023-02-14T23:11:57.772Z,0.60
2023-02-14T23:14:45.427Z,0.70
2023-02-14T23:17:35.010Z,0.70
2023-02-14T23:20:23.912Z,0.70
2023-02-14T23:22:53.760Z,0.70
2023-02-14T23:25:23.608Z,0.70
2023-02-14T23:27:53.458Z,0.70
2023-02-14T23:30:23.024Z,0.70
2023-02-14T23:32:52.923Z,0.70
2023-02-14T23:35:24.064Z,0.70
2023-02-14T23:37:54.256Z,0.60
2023-02-14T23:40:24.178Z,0.60
2023-02-14T23:42:56.445Z,0.60
2023-02-14T23:45:39.798Z,0.70
2023-02-14T23:48:09.619Z,0.70
2023-02-14T23:50:40.894Z,0.80
2023-02-14T23:53:10.682Z,0.90
2023-02-14T23:55:40.561Z,0.90
2023-02-14T23:58:10.452Z,0.70
